Elroy, Wisconsin
Current Conditions -  °F | °C
As of 4:08 AM on Tuesday 27 Jan 2015 (Local Time) from KVOK Reporting Station
Overcast Overcast  
Wind Chill: 19°   Ceiling: 600
Heat Index: 25°   Visibility: 10mi
Dew Point: 25°   Wind: 5mph
Humidity: 100%   Direction: 330°NNW
Pressure: 30.04"   Gusts: NA
Location:  43.74°N, 90.27°W
Report Text: KVOK 271008Z AUTO 33004KT 10SM OVC006 M04/M04 A3004 RMK AO2
Loading
Personal Weather Stations






























Interactive Weather Map New forecast layout! Learn more

10-Day Weather Forecast

Advertisements
Track Severe Weather on mobile